sensor_id;sensor_type;location;lat;lon;timestamp;temperature;humidity
52787;DHT22;38661;53.152;5.846;2022-07-04T00:00:48;14.30;81.60
52787;DHT22;38661;53.152;5.846;2022-07-04T00:03:14;14.30;81.40
52787;DHT22;38661;53.152;5.846;2022-07-04T00:05:40;14.30;81.30
52787;DHT22;38661;53.152;5.846;2022-07-04T00:08:05;14.30;81.60
52787;DHT22;38661;53.152;5.846;2022-07-04T00:10:31;14.40;81.80
52787;DHT22;38661;53.152;5.846;2022-07-04T00:12:57;14.40;81.70
52787;DHT22;38661;53.152;5.846;2022-07-04T00:15:23;14.50;81.80
52787;DHT22;38661;53.152;5.846;2022-07-04T00:17:49;14.40;82.10
52787;DHT22;38661;53.152;5.846;2022-07-04T00:20:15;14.50;81.70
52787;DHT22;38661;53.152;5.846;2022-07-04T00:22:41;14.40;81.70
52787;DHT22;38661;53.152;5.846;2022-07-04T00:25:07;14.40;81.80
52787;DHT22;38661;53.152;5.846;2022-07-04T00:27:33;14.40;81.80
52787;DHT22;38661;53.152;5.846;2022-07-04T00:29:59;14.20;82.10
52787;DHT22;38661;53.152;5.846;2022-07-04T00:32:24;14.10;82.70
52787;DHT22;38661;53.152;5.846;2022-07-04T00:34:50;14.10;82.90
52787;DHT22;38661;53.152;5.846;2022-07-04T00:37:16;14.10;82.40
52787;DHT22;38661;53.152;5.846;2022-07-04T00:39:42;14.10;82.70
52787;DHT22;38661;53.152;5.846;2022-07-04T00:42:08;14.10;82.40
52787;DHT22;38661;53.152;5.846;2022-07-04T00:44:34;14.00;83.50
52787;DHT22;38661;53.152;5.846;2022-07-04T00:47:02;14.00;83.20
52787;DHT22;38661;53.152;5.846;2022-07-04T00:49:29;14.00;83.20
52787;DHT22;38661;53.152;5.846;2022-07-04T00:51:55;14.00;82.90
52787;DHT22;38661;53.152;5.846;2022-07-04T00:54:25;14.00;83.10
52787;DHT22;38661;53.152;5.846;2022-07-04T00:56:52;14.00;82.90
52787;DHT22;38661;53.152;5.846;2022-07-04T00:59:18;14.00;84.00
52787;DHT22;38661;53.152;5.846;2022-07-04T01:01:43;14.00;83.70
52787;DHT22;38661;53.152;5.846;2022-07-04T01:04:09;14.00;83.40
52787;DHT22;38661;53.152;5.846;2022-07-04T01:06:35;14.00;83.50
52787;DHT22;38661;53.152;5.846;2022-07-04T01:09:01;14.00;83.40
52787;DHT22;38661;53.152;5.846;2022-07-04T01:11:26;14.00;83.80
52787;DHT22;38661;53.152;5.846;2022-07-04T01:13:56;14.00;83.40
52787;DHT22;38661;53.152;5.846;2022-07-04T01:16:24;14.00;83.70
52787;DHT22;38661;53.152;5.846;2022-07-04T01:18:50;14.00;83.60
52787;DHT22;38661;53.152;5.846;2022-07-04T01:21:18;14.00;84.50
52787;DHT22;38661;53.152;5.846;2022-07-04T01:23:44;14.00;84.50
52787;DHT22;38661;53.152;5.846;2022-07-04T01:26:09;13.90;84.70
52787;DHT22;38661;53.152;5.846;2022-07-04T01:28:35;14.00;84.40
52787;DHT22;38661;53.152;5.846;2022-07-04T01:31:01;14.00;84.30
52787;DHT22;38661;53.152;5.846;2022-07-04T01:33:27;13.90;84.90
52787;DHT22;38661;53.152;5.846;2022-07-04T01:35:53;13.90;85.00
52787;DHT22;38661;53.152;5.846;2022-07-04T01:38:18;13.90;85.60
52787;DHT22;38661;53.152;5.846;2022-07-04T01:40:44;13.90;85.50
52787;DHT22;38661;53.152;5.846;2022-07-04T01:43:10;13.80;85.60
52787;DHT22;38661;53.152;5.846;2022-07-04T01:45:36;13.80;85.70
52787;DHT22;38661;53.152;5.846;2022-07-04T01:48:06;13.90;85.50
52787;DHT22;38661;53.152;5.846;2022-07-04T01:50:32;13.90;85.30
52787;DHT22;38661;53.152;5.846;2022-07-04T01:52:58;13.80;86.80
52787;DHT22;38661;53.152;5.846;2022-07-04T01:55:24;13.80;86.10
52787;DHT22;38661;53.152;5.846;2022-07-04T01:57:49;13.80;86.80
52787;DHT22;38661;53.152;5.846;2022-07-04T02:00:15;13.70;86.90
52787;DHT22;38661;53.152;5.846;2022-07-04T02:02:59;13.70;86.70
52787;DHT22;38661;53.152;5.846;2022-07-04T02:05:25;13.70;87.10
52787;DHT22;38661;53.152;5.846;2022-07-04T02:07:51;13.70;86.90
52787;DHT22;38661;53.152;5.846;2022-07-04T02:10:17;13.60;87.40
52787;DHT22;38661;53.152;5.846;2022-07-04T02:12:43;13.60;87.70
52787;DHT22;38661;53.152;5.846;2022-07-04T02:17:57;13.50;88.20
52787;DHT22;38661;53.152;5.846;2022-07-04T02:20:24;13.60;87.40
52787;DHT22;38661;53.152;5.846;2022-07-04T02:22:49;13.60;88.60
52787;DHT22;38661;53.152;5.846;2022-07-04T02:25:15;13.60;88.20
52787;DHT22;38661;53.152;5.846;2022-07-04T02:27:41;13.60;87.80
52787;DHT22;38661;53.152;5.846;2022-07-04T02:30:07;13.60;88.50
52787;DHT22;38661;53.152;5.846;2022-07-04T02:32:33;13.60;88.50
52787;DHT22;38661;53.152;5.846;2022-07-04T02:34:59;13.70;88.00
52787;DHT22;38661;53.152;5.846;2022-07-04T02:37:25;13.70;88.00
52787;DHT22;38661;53.152;5.846;2022-07-04T02:39:50;13.70;88.00
52787;DHT22;38661;53.152;5.846;2022-07-04T02:42:16;13.70;87.90
52787;DHT22;38661;53.152;5.846;2022-07-04T02:44:42;13.70;88.20
52787;DHT22;38661;53.152;5.846;2022-07-04T02:47:08;13.70;87.80
52787;DHT22;38661;53.152;5.846;2022-07-04T02:49:34;13.70;88.60
52787;DHT22;38661;53.152;5.846;2022-07-04T02:52:00;13.70;88.20
52787;DHT22;38661;53.152;5.846;2022-07-04T02:54:25;13.70;88.30
52787;DHT22;38661;53.152;5.846;2022-07-04T02:56:51;13.70;88.40
52787;DHT22;38661;53.152;5.846;2022-07-04T02:59:16;13.70;88.40
52787;DHT22;38661;53.152;5.846;2022-07-04T03:01:42;13.70;88.40
52787;DHT22;38661;53.152;5.846;2022-07-04T03:04:08;13.70;88.60
52787;DHT22;38661;53.152;5.846;2022-07-04T03:06:34;13.70;88.60
52787;DHT22;38661;53.152;5.846;2022-07-04T03:08:59;13.70;88.60
52787;DHT22;38661;53.152;5.846;2022-07-04T03:11:25;13.70;88.10
52787;DHT22;38661;53.152;5.846;2022-07-04T03:13:50;13.70;88.00
52787;DHT22;38661;53.152;5.846;2022-07-04T03:16:16;13.70;88.80
52787;DHT22;38661;53.152;5.846;2022-07-04T03:18:42;13.70;88.50
52787;DHT22;38661;53.152;5.846;2022-07-04T03:21:07;13.80;89.20
52787;DHT22;38661;53.152;5.846;2022-07-04T03:23:34;13.80;89.00
52787;DHT22;38661;53.152;5.846;2022-07-04T03:26:00;13.80;89.20
52787;DHT22;38661;53.152;5.846;2022-07-04T03:28:27;13.80;89.00
52787;DHT22;38661;53.152;5.846;2022-07-04T03:30:53;13.90;88.80
52787;DHT22;38661;53.152;5.846;2022-07-04T03:33:18;13.90;88.80
52787;DHT22;38661;53.152;5.846;2022-07-04T03:35:44;13.90;88.90
52787;DHT22;38661;53.152;5.846;2022-07-04T03:38:10;13.90;89.50
52787;DHT22;38661;53.152;5.846;2022-07-04T03:40:36;13.90;89.60
52787;DHT22;38661;53.152;5.846;2022-07-04T03:43:03;14.00;88.80
52787;DHT22;38661;53.152;5.846;2022-07-04T03:45:30;14.00;89.40
52787;DHT22;38661;53.152;5.846;2022-07-04T03:47:56;14.00;88.80
52787;DHT22;38661;53.152;5.846;2022-07-04T03:50:22;14.00;90.00
52787;DHT22;38661;53.152;5.846;2022-07-04T03:52:48;14.00;89.90
52787;DHT22;38661;53.152;5.846;2022-07-04T03:55:15;14.00;90.40
52787;DHT22;38661;53.152;5.846;2022-07-04T03:57:40;14.00;90.30
52787;DHT22;38661;53.152;5.846;2022-07-04T04:00:07;14.00;90.60
52787;DHT22;38661;53.152;5.846;2022-07-04T04:02:33;14.00;90.50
52787;DHT22;38661;53.152;5.846;2022-07-04T04:04:59;14.00;90.10
52787;DHT22;38661;53.152;5.846;2022-07-04T04:07:43;14.10;90.80
52787;DHT22;38661;53.152;5.846;2022-07-04T04:10:09;14.00;90.80
52787;DHT22;38661;53.152;5.846;2022-07-04T04:12:35;14.00;90.30
52787;DHT22;38661;53.152;5.846;2022-07-04T04:15:01;14.10;90.30
52787;DHT22;38661;53.152;5.846;2022-07-04T04:17:28;14.10;90.20
52787;DHT22;38661;53.152;5.846;2022-07-04T04:19:53;14.20;89.90
52787;DHT22;38661;53.152;5.846;2022-07-04T04:22:19;14.30;89.70
52787;DHT22;38661;53.152;5.846;2022-07-04T04:24:45;14.30;90.20
52787;DHT22;38661;53.152;5.846;2022-07-04T04:27:10;14.40;90.10
52787;DHT22;38661;53.152;5.846;2022-07-04T04:29:36;14.40;89.80
52787;DHT22;38661;53.152;5.846;2022-07-04T04:32:02;14.50;89.70
52787;DHT22;38661;53.152;5.846;2022-07-04T04:34:28;14.50;89.50
52787;DHT22;38661;53.152;5.846;2022-07-04T04:36:53;14.50;89.60
52787;DHT22;38661;53.152;5.846;2022-07-04T04:39:19;14.60;90.10
52787;DHT22;38661;53.152;5.846;2022-07-04T04:41:45;14.60;89.60
52787;DHT22;38661;53.152;5.846;2022-07-04T04:44:10;14.60;89.80
52787;DHT22;38661;53.152;5.846;2022-07-04T04:46:36;14.70;89.80
52787;DHT22;38661;53.152;5.846;2022-07-04T04:49:02;14.70;90.10
52787;DHT22;38661;53.152;5.846;2022-07-04T04:51:27;14.70;90.00
52787;DHT22;38661;53.152;5.846;2022-07-04T04:53:53;14.80;89.70
52787;DHT22;38661;53.152;5.846;2022-07-04T04:56:19;14.90;89.50
52787;DHT22;38661;53.152;5.846;2022-07-04T04:58:44;14.90;88.90
52787;DHT22;38661;53.152;5.846;2022-07-04T05:01:10;15.00;89.40
52787;DHT22;38661;53.152;5.846;2022-07-04T05:03:36;15.10;88.80
52787;DHT22;38661;53.152;5.846;2022-07-04T05:06:01;15.20;89.20
52787;DHT22;38661;53.152;5.846;2022-07-04T05:08:27;15.30;88.80
52787;DHT22;38661;53.152;5.846;2022-07-04T05:10:53;15.40;88.50
52787;DHT22;38661;53.152;5.846;2022-07-04T05:13:19;15.50;88.70
52787;DHT22;38661;53.152;5.846;2022-07-04T05:15:45;15.50;88.40
52787;DHT22;38661;53.152;5.846;2022-07-04T05:18:12;15.60;88.40
52787;DHT22;38661;53.152;5.846;2022-07-04T05:20:38;15.70;88.40
52787;DHT22;38661;53.152;5.846;2022-07-04T05:23:05;15.80;88.20
52787;DHT22;38661;53.152;5.846;2022-07-04T05:25:31;15.90;88.20
52787;DHT22;38661;53.152;5.846;2022-07-04T05:27:58;16.00;87.90
52787;DHT22;38661;53.152;5.846;2022-07-04T05:30:24;16.00;88.10
52787;DHT22;38661;53.152;5.846;2022-07-04T05:32:50;16.10;88.50
52787;DHT22;38661;53.152;5.846;2022-07-04T05:35:15;16.20;88.20
52787;DHT22;38661;53.152;5.846;2022-07-04T05:37:41;16.30;87.80
52787;DHT22;38661;53.152;5.846;2022-07-04T05:40:07;16.40;88.20
52787;DHT22;38661;53.152;5.846;2022-07-04T05:42:36;16.40;88.20
52787;DHT22;38661;53.152;5.846;2022-07-04T05:45:02;16.50;87.80
52787;DHT22;38661;53.152;5.846;2022-07-04T05:47:28;16.70;87.70
52787;DHT22;38661;53.152;5.846;2022-07-04T05:49:54;16.80;87.70
52787;DHT22;38661;53.152;5.846;2022-07-04T05:52:20;16.90;87.70
52787;DHT22;38661;53.152;5.846;2022-07-04T05:54:45;17.00;86.80
52787;DHT22;38661;53.152;5.846;2022-07-04T05:57:11;17.00;86.70
52787;DHT22;38661;53.152;5.846;2022-07-04T05:59:37;17.10;87.00
52787;DHT22;38661;53.152;5.846;2022-07-04T06:02:03;17.20;86.10
52787;DHT22;38661;53.152;5.846;2022-07-04T06:04:28;17.10;85.50
52787;DHT22;38661;53.152;5.846;2022-07-04T06:06:54;17.10;85.40
52787;DHT22;38661;53.152;5.846;2022-07-04T06:09:20;17.10;86.10
52787;DHT22;38661;53.152;5.846;2022-07-04T06:11:45;17.10;85.50
52787;DHT22;38661;53.152;5.846;2022-07-04T06:14:11;17.20;85.30
52787;DHT22;38661;53.152;5.846;2022-07-04T06:16:37;17.20;85.10
52787;DHT22;38661;53.152;5.846;2022-07-04T06:19:03;17.40;84.30
52787;DHT22;38661;53.152;5.846;2022-07-04T06:21:28;17.50;83.50
52787;DHT22;38661;53.152;5.846;2022-07-04T06:23:54;17.70;83.30
52787;DHT22;38661;53.152;5.846;2022-07-04T06:26:20;17.80;83.40
52787;DHT22;38661;53.152;5.846;2022-07-04T06:28:46;17.90;82.20
52787;DHT22;38661;53.152;5.846;2022-07-04T06:31:12;17.90;81.40
52787;DHT22;38661;53.152;5.846;2022-07-04T06:33:38;18.00;81.40
52787;DHT22;38661;53.152;5.846;2022-07-04T06:36:22;18.00;80.60
52787;DHT22;38661;53.152;5.846;2022-07-04T06:38:48;18.00;80.90
52787;DHT22;38661;53.152;5.846;2022-07-04T06:41:13;18.00;80.00
52787;DHT22;38661;53.152;5.846;2022-07-04T06:43:39;18.00;80.00
52787;DHT22;38661;53.152;5.846;2022-07-04T06:46:05;18.10;79.60
52787;DHT22;38661;53.152;5.846;2022-07-04T06:48:30;18.10;79.50
52787;DHT22;38661;53.152;5.846;2022-07-04T06:50:56;18.20;79.00
52787;DHT22;38661;53.152;5.846;2022-07-04T06:53:22;18.30;78.40
52787;DHT22;38661;53.152;5.846;2022-07-04T06:55:47;18.30;78.90
52787;DHT22;38661;53.152;5.846;2022-07-04T06:58:14;18.40;78.00
52787;DHT22;38661;53.152;5.846;2022-07-04T07:00:40;18.50;76.40
52787;DHT22;38661;53.152;5.846;2022-07-04T07:03:07;18.50;75.50
52787;DHT22;38661;53.152;5.846;2022-07-04T07:05:33;18.60;75.20
52787;DHT22;38661;53.152;5.846;2022-07-04T07:08:05;18.70;74.40
52787;DHT22;38661;53.152;5.846;2022-07-04T07:10:31;18.80;72.50
52787;DHT22;38661;53.152;5.846;2022-07-04T07:12:58;18.80;72.50
52787;DHT22;38661;53.152;5.846;2022-07-04T07:15:25;18.80;72.20
52787;DHT22;38661;53.152;5.846;2022-07-04T07:17:50;18.90;71.40
52787;DHT22;38661;53.152;5.846;2022-07-04T07:20:16;18.90;71.00
52787;DHT22;38661;53.152;5.846;2022-07-04T07:22:42;18.90;70.80
52787;DHT22;38661;53.152;5.846;2022-07-04T07:25:09;18.90;70.80
52787;DHT22;38661;53.152;5.846;2022-07-04T07:27:35;18.80;71.70
52787;DHT22;38661;53.152;5.846;2022-07-04T07:30:02;18.80;71.80
52787;DHT22;38661;53.152;5.846;2022-07-04T07:32:28;18.80;71.50
52787;DHT22;38661;53.152;5.846;2022-07-04T07:34:54;18.90;72.00
52787;DHT22;38661;53.152;5.846;2022-07-04T07:37:19;18.90;72.30
52787;DHT22;38661;53.152;5.846;2022-07-04T07:39:47;19.00;71.40
52787;DHT22;38661;53.152;5.846;2022-07-04T07:42:13;19.10;70.20
52787;DHT22;38661;53.152;5.846;2022-07-04T07:44:39;19.20;70.00
52787;DHT22;38661;53.152;5.846;2022-07-04T07:47:05;19.10;70.80
52787;DHT22;38661;53.152;5.846;2022-07-04T07:49:37;19.10;70.60
52787;DHT22;38661;53.152;5.846;2022-07-04T07:52:03;19.20;70.80
52787;DHT22;38661;53.152;5.846;2022-07-04T07:54:29;19.30;69.70
52787;DHT22;38661;53.152;5.846;2022-07-04T07:56:55;19.20;70.00
52787;DHT22;38661;53.152;5.846;2022-07-04T07:59:20;19.30;70.40
52787;DHT22;38661;53.152;5.846;2022-07-04T08:01:46;19.30;70.60
52787;DHT22;38661;53.152;5.846;2022-07-04T08:04:12;19.40;69.80
52787;DHT22;38661;53.152;5.846;2022-07-04T08:06:56;19.40;69.00
52787;DHT22;38661;53.152;5.846;2022-07-04T08:09:22;19.40;68.70
52787;DHT22;38661;53.152;5.846;2022-07-04T08:11:47;19.50;68.30
52787;DHT22;38661;53.152;5.846;2022-07-04T08:14:13;19.60;67.70
52787;DHT22;38661;53.152;5.846;2022-07-04T08:16:39;19.70;68.20
52787;DHT22;38661;53.152;5.846;2022-07-04T08:19:06;19.80;67.50
52787;DHT22;38661;53.152;5.846;2022-07-04T08:21:32;19.70;67.40
52787;DHT22;38661;53.152;5.846;2022-07-04T08:23:57;19.70;67.70
52787;DHT22;38661;53.152;5.846;2022-07-04T08:26:23;19.70;67.10
52787;DHT22;38661;53.152;5.846;2022-07-04T08:28:49;19.70;67.90
52787;DHT22;38661;53.152;5.846;2022-07-04T08:31:18;19.70;66.80
52787;DHT22;38661;53.152;5.846;2022-07-04T08:33:44;19.90;67.00
52787;DHT22;38661;53.152;5.846;2022-07-04T08:36:12;20.00;66.60
52787;DHT22;38661;53.152;5.846;2022-07-04T08:38:38;20.10;65.70
52787;DHT22;38661;53.152;5.846;2022-07-04T08:41:04;20.10;65.50
52787;DHT22;38661;53.152;5.846;2022-07-04T08:43:31;20.30;64.20
52787;DHT22;38661;53.152;5.846;2022-07-04T08:46:03;20.20;64.30
52787;DHT22;38661;53.152;5.846;2022-07-04T08:48:31;20.30;63.90
52787;DHT22;38661;53.152;5.846;2022-07-04T08:51:15;20.40;63.30
52787;DHT22;38661;53.152;5.846;2022-07-04T08:53:48;20.50;62.80
52787;DHT22;38661;53.152;5.846;2022-07-04T08:56:17;20.60;63.50
52787;DHT22;38661;53.152;5.846;2022-07-04T08:59:02;20.60;63.70
52787;DHT22;38661;53.152;5.846;2022-07-04T09:01:30;20.70;64.10
52787;DHT22;38661;53.152;5.846;2022-07-04T09:03:56;20.60;64.70
52787;DHT22;38661;53.152;5.846;2022-07-04T09:06:24;20.40;65.50
52787;DHT22;38661;53.152;5.846;2022-07-04T09:08:49;20.30;65.90
52787;DHT22;38661;53.152;5.846;2022-07-04T09:11:18;20.10;66.50
52787;DHT22;38661;53.152;5.846;2022-07-04T09:13:43;20.20;66.70
52787;DHT22;38661;53.152;5.846;2022-07-04T09:16:09;20.40;66.70
52787;DHT22;38661;53.152;5.846;2022-07-04T09:18:36;20.50;64.90
52787;DHT22;38661;53.152;5.846;2022-07-04T09:21:07;20.60;64.80
52787;DHT22;38661;53.152;5.846;2022-07-04T09:23:41;20.90;65.40
52787;DHT22;38661;53.152;5.846;2022-07-04T09:26:20;21.00;64.60
52787;DHT22;38661;53.152;5.846;2022-07-04T09:28:57;21.10;63.60
52787;DHT22;38661;53.152;5.846;2022-07-04T09:31:30;21.00;63.60
52787;DHT22;38661;53.152;5.846;2022-07-04T09:33:58;21.10;62.60
52787;DHT22;38661;53.152;5.846;2022-07-04T09:36:30;21.10;62.10
52787;DHT22;38661;53.152;5.846;2022-07-04T09:39:16;21.00;61.60
52787;DHT22;38661;53.152;5.846;2022-07-04T09:41:53;21.00;62.00
52787;DHT22;38661;53.152;5.846;2022-07-04T09:44:19;21.00;61.00
52787;DHT22;38661;53.152;5.846;2022-07-04T09:46:46;21.10;61.90
52787;DHT22;38661;53.152;5.846;2022-07-04T09:49:11;21.00;61.60
52787;DHT22;38661;53.152;5.846;2022-07-04T09:51:44;21.20;63.10
52787;DHT22;38661;53.152;5.846;2022-07-04T09:56:45;21.10;58.00
52787;DHT22;38661;53.152;5.846;2022-07-04T09:59:11;21.10;56.40
52787;DHT22;38661;53.152;5.846;2022-07-04T10:01:37;21.30;57.40
52787;DHT22;38661;53.152;5.846;2022-07-04T10:04:06;21.50;58.40
52787;DHT22;38661;53.152;5.846;2022-07-04T10:06:33;21.60;55.90
52787;DHT22;38661;53.152;5.846;2022-07-04T10:09:18;21.70;57.20
52787;DHT22;38661;53.152;5.846;2022-07-04T10:11:47;21.80;56.80
52787;DHT22;38661;53.152;5.846;2022-07-04T10:14:13;21.90;57.50
52787;DHT22;38661;53.152;5.846;2022-07-04T10:16:40;21.80;54.40
52787;DHT22;38661;53.152;5.846;2022-07-04T10:19:07;21.90;53.70
52787;DHT22;38661;53.152;5.846;2022-07-04T10:21:33;22.00;54.20
52787;DHT22;38661;53.152;5.846;2022-07-04T10:23:59;22.00;53.60
52787;DHT22;38661;53.152;5.846;2022-07-04T10:26:27;21.90;53.00
52787;DHT22;38661;53.152;5.846;2022-07-04T10:28:54;22.00;53.20
52787;DHT22;38661;53.152;5.846;2022-07-04T10:31:22;22.20;53.70
52787;DHT22;38661;53.152;5.846;2022-07-04T10:33:49;22.30;53.50
52787;DHT22;38661;53.152;5.846;2022-07-04T10:36:18;22.30;52.40
52787;DHT22;38661;53.152;5.846;2022-07-04T10:39:01;22.40;53.90
52787;DHT22;38661;53.152;5.846;2022-07-04T10:41:29;22.30;52.20
52787;DHT22;38661;53.152;5.846;2022-07-04T10:46:36;22.10;51.40
52787;DHT22;38661;53.152;5.846;2022-07-04T10:54:31;21.80;51.50
52787;DHT22;38661;53.152;5.846;2022-07-04T10:57:21;21.80;50.60
52787;DHT22;38661;53.152;5.846;2022-07-04T11:17:48;22.30;51.10
52787;DHT22;38661;53.152;5.846;2022-07-04T11:20:17;22.40;50.70
52787;DHT22;38661;53.152;5.846;2022-07-04T11:22:43;22.50;50.50
52787;DHT22;38661;53.152;5.846;2022-07-04T11:25:11;22.50;48.80
52787;DHT22;38661;53.152;5.846;2022-07-04T11:27:37;22.40;48.60
52787;DHT22;38661;53.152;5.846;2022-07-04T11:30:04;22.40;47.80
52787;DHT22;38661;53.152;5.846;2022-07-04T11:32:32;22.30;48.40
52787;DHT22;38661;53.152;5.846;2022-07-04T11:34:58;22.20;48.10
52787;DHT22;38661;53.152;5.846;2022-07-04T11:37:24;22.20;47.80
52787;DHT22;38661;53.152;5.846;2022-07-04T11:39:53;22.20;48.20
52787;DHT22;38661;53.152;5.846;2022-07-04T11:42:40;22.20;48.80
52787;DHT22;38661;53.152;5.846;2022-07-04T11:45:24;22.30;48.50
52787;DHT22;38661;53.152;5.846;2022-07-04T11:47:50;22.30;47.60
52787;DHT22;38661;53.152;5.846;2022-07-04T11:50:17;22.30;46.90
52787;DHT22;38661;53.152;5.846;2022-07-04T11:52:48;22.30;47.10
52787;DHT22;38661;53.152;5.846;2022-07-04T11:55:17;22.50;47.50
52787;DHT22;38661;53.152;5.846;2022-07-04T11:57:50;22.60;47.50
52787;DHT22;38661;53.152;5.846;2022-07-04T12:00:19;22.70;47.30
52787;DHT22;38661;53.152;5.846;2022-07-04T12:02:48;22.80;48.00
52787;DHT22;38661;53.152;5.846;2022-07-04T12:05:15;22.80;48.80
52787;DHT22;38661;53.152;5.846;2022-07-04T12:07:44;22.80;48.40
52787;DHT22;38661;53.152;5.846;2022-07-04T12:10:18;22.80;47.30
52787;DHT22;38661;53.152;5.846;2022-07-04T12:12:57;22.60;48.70
52787;DHT22;38661;53.152;5.846;2022-07-04T12:15:24;22.40;49.50
52787;DHT22;38661;53.152;5.846;2022-07-04T12:17:52;22.50;48.50
52787;DHT22;38661;53.152;5.846;2022-07-04T12:20:20;22.50;49.10
52787;DHT22;38661;53.152;5.846;2022-07-04T12:22:55;22.50;49.00
52787;DHT22;38661;53.152;5.846;2022-07-04T12:25:29;22.60;49.20
52787;DHT22;38661;53.152;5.846;2022-07-04T12:28:00;22.70;48.70
52787;DHT22;38661;53.152;5.846;2022-07-04T12:30:32;22.70;47.70
52787;DHT22;38661;53.152;5.846;2022-07-04T12:33:03;22.80;46.80
52787;DHT22;38661;53.152;5.846;2022-07-04T12:38:13;23.10;47.80
52787;DHT22;38661;53.152;5.846;2022-07-04T12:46:14;22.80;46.10
52787;DHT22;38661;53.152;5.846;2022-07-04T12:48:41;22.80;47.00
52787;DHT22;38661;53.152;5.846;2022-07-04T12:51:17;22.80;47.40
52787;DHT22;38661;53.152;5.846;2022-07-04T12:53:45;22.70;47.70
52787;DHT22;38661;53.152;5.846;2022-07-04T12:56:30;22.90;48.70
52787;DHT22;38661;53.152;5.846;2022-07-04T12:59:04;22.90;47.60
52787;DHT22;38661;53.152;5.846;2022-07-04T13:01:30;22.90;47.70
52787;DHT22;38661;53.152;5.846;2022-07-04T13:03:57;22.90;47.60
52787;DHT22;38661;53.152;5.846;2022-07-04T13:06:23;22.90;48.10
52787;DHT22;38661;53.152;5.846;2022-07-04T13:08:49;23.00;48.30
52787;DHT22;38661;53.152;5.846;2022-07-04T13:11:15;22.90;47.30
52787;DHT22;38661;53.152;5.846;2022-07-04T13:13:59;22.90;48.00
52787;DHT22;38661;53.152;5.846;2022-07-04T13:16:24;22.90;49.20
52787;DHT22;38661;53.152;5.846;2022-07-04T13:18:50;22.90;47.70
52787;DHT22;38661;53.152;5.846;2022-07-04T13:21:16;22.80;48.80
52787;DHT22;38661;53.152;5.846;2022-07-04T13:23:42;22.90;48.90
52787;DHT22;38661;53.152;5.846;2022-07-04T13:26:07;22.70;49.50
52787;DHT22;38661;53.152;5.846;2022-07-04T13:28:33;22.50;49.10
52787;DHT22;38661;53.152;5.846;2022-07-04T13:30:59;22.70;48.00
52787;DHT22;38661;53.152;5.846;2022-07-04T13:33:25;22.70;49.80
52787;DHT22;38661;53.152;5.846;2022-07-04T13:35:50;22.70;50.10
52787;DHT22;38661;53.152;5.846;2022-07-04T13:38:16;22.90;48.80
52787;DHT22;38661;53.152;5.846;2022-07-04T13:40:44;23.00;47.50
52787;DHT22;38661;53.152;5.846;2022-07-04T13:43:10;23.10;48.80
52787;DHT22;38661;53.152;5.846;2022-07-04T13:45:37;23.20;47.60
52787;DHT22;38661;53.152;5.846;2022-07-04T13:48:05;23.30;49.00
52787;DHT22;38661;53.152;5.846;2022-07-04T13:50:31;23.30;49.20
52787;DHT22;38661;53.152;5.846;2022-07-04T13:52:57;23.40;47.20
52787;DHT22;38661;53.152;5.846;2022-07-04T13:55:25;23.10;48.40
52787;DHT22;38661;53.152;5.846;2022-07-04T13:57:51;23.00;48.30
52787;DHT22;38661;53.152;5.846;2022-07-04T14:00:16;22.90;48.00
52787;DHT22;38661;53.152;5.846;2022-07-04T14:02:42;22.90;48.80
52787;DHT22;38661;53.152;5.846;2022-07-04T14:05:08;22.90;48.60
52787;DHT22;38661;53.152;5.846;2022-07-04T14:07:34;22.70;48.60
52787;DHT22;38661;53.152;5.846;2022-07-04T14:10:00;22.70;49.80
52787;DHT22;38661;53.152;5.846;2022-07-04T14:12:26;22.90;49.10
52787;DHT22;38661;53.152;5.846;2022-07-04T14:14:51;22.90;48.80
52787;DHT22;38661;53.152;5.846;2022-07-04T14:17:17;23.10;47.70
52787;DHT22;38661;53.152;5.846;2022-07-04T14:19:43;23.00;47.90
52787;DHT22;38661;53.152;5.846;2022-07-04T14:22:08;23.10;49.30
52787;DHT22;38661;53.152;5.846;2022-07-04T14:24:34;23.00;49.70
52787;DHT22;38661;53.152;5.846;2022-07-04T14:27:00;22.90;49.20
52787;DHT22;38661;53.152;5.846;2022-07-04T14:29:26;22.90;48.60
52787;DHT22;38661;53.152;5.846;2022-07-04T14:31:52;23.00;48.80
52787;DHT22;38661;53.152;5.846;2022-07-04T14:34:18;23.10;48.60
52787;DHT22;38661;53.152;5.846;2022-07-04T14:36:44;23.10;49.00
52787;DHT22;38661;53.152;5.846;2022-07-04T14:39:10;23.10;47.10
52787;DHT22;38661;53.152;5.846;2022-07-04T14:41:38;22.90;46.80
52787;DHT22;38661;53.152;5.846;2022-07-04T14:44:04;23.00;48.40
52787;DHT22;38661;53.152;5.846;2022-07-04T14:46:30;23.20;49.10
52787;DHT22;38661;53.152;5.846;2022-07-04T14:48:56;23.30;48.00
52787;DHT22;38661;53.152;5.846;2022-07-04T14:51:23;23.10;47.70
52787;DHT22;38661;53.152;5.846;2022-07-04T14:53:50;23.00;48.40
52787;DHT22;38661;53.152;5.846;2022-07-04T14:56:16;22.80;49.40
52787;DHT22;38661;53.152;5.846;2022-07-04T14:58:42;22.50;50.40
52787;DHT22;38661;53.152;5.846;2022-07-04T15:01:08;22.50;49.80
52787;DHT22;38661;53.152;5.846;2022-07-04T15:03:34;22.30;50.50
52787;DHT22;38661;53.152;5.846;2022-07-04T15:05:59;22.30;51.10
52787;DHT22;38661;53.152;5.846;2022-07-04T15:08:25;22.50;51.40
52787;DHT22;38661;53.152;5.846;2022-07-04T15:10:51;22.70;51.30
52787;DHT22;38661;53.152;5.846;2022-07-04T15:13:17;22.60;49.80
52787;DHT22;38661;53.152;5.846;2022-07-04T15:15:42;22.50;50.30
52787;DHT22;38661;53.152;5.846;2022-07-04T15:18:08;22.40;50.60
52787;DHT22;38661;53.152;5.846;2022-07-04T15:20:34;22.50;50.60
52787;DHT22;38661;53.152;5.846;2022-07-04T15:23:18;22.70;50.30
52787;DHT22;38661;53.152;5.846;2022-07-04T15:26:02;22.90;50.90
52787;DHT22;38661;53.152;5.846;2022-07-04T15:28:28;23.10;50.10
52787;DHT22;38661;53.152;5.846;2022-07-04T15:30:54;22.90;48.30
52787;DHT22;38661;53.152;5.846;2022-07-04T15:33:20;22.60;49.00
52787;DHT22;38661;53.152;5.846;2022-07-04T15:35:47;22.60;49.60
52787;DHT22;38661;53.152;5.846;2022-07-04T15:38:13;22.50;49.70
52787;DHT22;38661;53.152;5.846;2022-07-04T15:40:40;22.60;49.00
52787;DHT22;38661;53.152;5.846;2022-07-04T15:43:08;22.60;48.50
52787;DHT22;38661;53.152;5.846;2022-07-04T15:45:33;22.40;47.00
52787;DHT22;38661;53.152;5.846;2022-07-04T15:47:59;22.40;48.30
52787;DHT22;38661;53.152;5.846;2022-07-04T15:50:25;22.50;47.50
52787;DHT22;38661;53.152;5.846;2022-07-04T15:52:52;22.40;48.50
52787;DHT22;38661;53.152;5.846;2022-07-04T15:55:18;22.50;48.50
52787;DHT22;38661;53.152;5.846;2022-07-04T15:57:43;22.70;48.20
52787;DHT22;38661;53.152;5.846;2022-07-04T16:00:09;22.70;47.40
52787;DHT22;38661;53.152;5.846;2022-07-04T16:02:35;22.70;47.30
52787;DHT22;38661;53.152;5.846;2022-07-04T16:05:01;22.80;47.80
52787;DHT22;38661;53.152;5.846;2022-07-04T16:07:27;23.00;47.00
52787;DHT22;38661;53.152;5.846;2022-07-04T16:09:52;22.90;46.90